Time;durP1;ratioP1;P1;durP2;ratioP2;P2;SDS_P1;SDS_P2;PMS_P1;PMS_P2;Temp;Humidity;BMP_temperature;BMP_pressure;BME280_temperature;BME280_humidity;BME280_pressure;Samples;Min_cycle;Max_cycle;Signal;HPM_P1;HPM_P2
2023/07/05 00:00:16;;;;;;;;;9.00;7.33;;;;;17.50;65.80;100576.38;5094948;27;44974;-62
2023/07/05 00:02:42;;;;;;;;;5.33;5.33;;;;;17.49;65.99;100591.69;5092373;28;45316;-61
2023/07/05 00:05:07;;;;;;;;;10.00;7.00;;;;;17.46;65.99;100588.09;5087193;27;45301;-62
2023/07/05 00:07:33;;;;;;;;;14.33;11.00;;;;;17.45;66.02;100589.00;5086631;28;45663;-62
2023/07/05 00:09:59;;;;;;;;;7.33;5.67;;;;;17.42;66.13;100589.94;5079537;27;45265;-62
2023/07/05 00:12:24;;;;;;;;;10.67;9.67;;;;;17.42;66.12;100606.13;5082456;28;45584;-62
2023/07/05 00:14:50;;;;;;;;;12.00;10.00;;;;;17.36;65.69;100611.56;5088207;28;45111;-61
2023/07/05 00:17:15;;;;;;;;;7.67;7.67;;;;;17.38;66.09;100612.44;5087940;27;45576;-61
2023/07/05 00:19:41;;;;;;;;;8.50;7.50;;;;;17.36;66.21;100603.44;5072595;27;45348;-62
2023/07/05 00:22:06;;;;;;;;;9.33;8.00;;;;;17.33;66.18;100607.97;5090956;28;45862;-62
2023/07/05 00:24:32;;;;;;;;;9.00;4.67;;;;;17.25;66.13;100598.06;5095083;28;45455;-61
2023/07/05 00:26:57;;;;;;;;;11.00;9.67;;;;;17.27;65.54;100616.97;5074372;28;47393;-62
2023/07/05 00:29:22;;;;;;;;;11.75;9.00;;;;;17.20;65.83;100613.41;5052941;28;54163;-63
2023/07/05 00:31:48;;;;;;;;;8.50;7.75;;;;;17.17;65.83;100623.31;5075148;28;52552;-62
2023/07/05 00:34:13;;;;;;;;;12.00;10.67;;;;;17.18;65.48;100627.81;5072220;27;45349;-62
2023/07/05 00:36:39;;;;;;;;;11.00;10.67;;;;;17.16;65.50;100618.81;5087261;28;54518;-61
2023/07/05 00:39:04;;;;;;;;;10.33;9.00;;;;;17.14;65.55;100632.28;5088889;27;45412;-62
2023/07/05 00:41:30;;;;;;;;;12.33;11.00;;;;;17.12;65.35;100629.59;5077674;27;45526;-63
2023/07/05 00:43:55;;;;;;;;;10.33;9.33;;;;;17.07;65.21;100623.31;5075453;27;45478;-63
2023/07/05 00:46:31;;;;;;;;;8.33;6.67;;;;;17.04;64.93;100642.25;5072555;28;47350;-63
2023/07/05 00:49:03;;;;;;;;;11.00;7.67;;;;;17.01;64.74;100644.94;5090266;27;45368;-62
2023/07/05 00:51:39;;;;;;;;;14.00;9.67;;;;;17.00;64.66;100640.44;5081323;27;45240;-62
2023/07/05 00:54:05;;;;;;;;;10.25;9.00;;;;;17.00;63.83;100648.53;5087879;27;45218;-62
2023/07/05 00:56:43;;;;;;;;;5.00;4.00;;;;;17.00;63.64;100659.34;5071186;27;45415;-61
2023/07/05 00:59:12;;;;;;;;;11.50;9.75;;;;;17.01;63.38;100644.03;5081235;27;45273;-62
2023/07/05 01:01:38;;;;;;;;;9.00;9.00;;;;;16.98;63.83;100647.66;5078713;28;46051;-62
2023/07/05 01:04:04;;;;;;;;;14.67;9.67;;;;;17.03;63.37;100655.75;5089946;27;45180;-62
2023/07/05 01:06:30;;;;;;;;;10.00;8.33;;;;;17.04;63.43;100658.44;5090249;28;46086;-63
2023/07/05 01:08:56;;;;;;;;;11.50;8.00;;;;;17.04;63.26;100665.63;5089960;28;45107;-61
2023/07/05 01:11:39;;;;;;;;;9.67;7.67;;;;;17.01;63.08;100669.25;5089080;27;44949;-62
2023/07/05 01:14:16;;;;;;;;;7.00;7.00;;;;;16.97;61.96;100664.72;5064588;28;45496;-62
2023/07/05 01:16:59;;;;;;;;;7.00;5.67;;;;;16.93;62.14;100682.72;5083498;28;46196;-62
2023/07/05 01:19:43;;;;;;;;;5.67;5.67;;;;;16.86;61.53;100672.84;5079143;27;45579;-62
2023/07/05 01:22:20;;;;;;;;;3.67;3.67;;;;;16.81;62.61;100674.59;5064791;28;45303;-62
2023/07/05 01:25:15;;;;;;;;;8.67;7.33;;;;;16.82;62.07;100683.63;5079015;28;45392;-61
2023/07/05 01:28:02;;;;;;;;;8.33;7.67;;;;;16.79;62.43;100664.72;5042316;28;45591;-62
2023/07/05 01:30:41;;;;;;;;;8.67;7.00;;;;;16.77;62.72;100673.69;5070325;28;45142;-62
2023/07/05 01:33:11;;;;;;;;;5.67;5.67;;;;;16.75;62.57;100662.03;5089571;28;45067;-60
2023/07/05 01:35:41;;;;;;;;;8.00;8.00;;;;;16.67;62.49;100653.03;5071231;28;45401;-62
2023/07/05 01:38:06;;;;;;;;;9.00;6.33;;;;;16.72;62.56;100659.31;5083031;27;45412;-63
2023/07/05 01:40:32;;;;;;;;;15.67;8.67;;;;;16.72;62.17;100672.81;5087230;27;45408;-61
2023/07/05 01:43:01;;;;;;;;;11.00;6.33;;;;;16.61;61.74;100658.41;5074302;28;45333;-61
2023/07/05 01:45:51;;;;;;;;;9.33;8.33;;;;;16.70;62.08;100680.00;5080134;27;45517;-62
2023/07/05 01:48:31;;;;;;;;;5.00;5.00;;;;;16.73;62.19;100687.22;5064615;28;45660;-62
2023/07/05 01:51:16;;;;;;;;;16.67;6.67;;;;;16.74;61.49;100703.38;5083265;28;45061;-61
2023/07/05 01:54:02;;;;;;;;;6.33;5.33;;;;;16.73;60.64;100715.09;5083148;27;45074;-63
2023/07/05 01:56:55;;;;;;;;;6.33;6.33;;;;;16.75;60.72;100702.50;5090035;27;45035;-63
2023/07/05 01:59:26;;;;;;;;;4.00;4.00;;;;;16.70;60.33;100704.28;5065500;28;46140;-62
2023/07/05 02:01:54;;;;;;;;;3.67;3.00;;;;;16.76;60.13;100706.06;5077927;28;45366;-62
2023/07/05 02:04:23;;;;;;;;;3.00;3.00;;;;;16.74;59.17;100718.69;5069528;28;45451;-62
2023/07/05 02:06:49;;;;;;;;;4.67;3.67;;;;;16.72;58.69;100718.66;5071298;27;45285;-61
2023/07/05 02:09:15;;;;;;;;;5.33;3.33;;;;;16.71;58.89;100722.28;5075726;27;46389;-62
2023/07/05 02:11:40;;;;;;;;;6.00;3.33;;;;;16.67;58.71;100711.50;5081246;27;45435;-62
2023/07/05 02:14:06;;;;;;;;;6.67;2.00;;;;;16.62;58.55;100713.28;5075140;27;45354;-64
2023/07/05 02:16:31;;;;;;;;;3.00;3.00;;;;;16.65;58.59;100727.66;5079616;28;45566;-62
2023/07/05 02:18:56;;;;;;;;;8.00;3.00;;;;;16.58;58.84;100725.84;5074739;28;45713;-62
2023/07/05 02:21:22;;;;;;;;;2.00;2.00;;;;;16.58;59.63;100732.16;5073861;28;45580;-62
2023/07/05 02:23:47;;;;;;;;;7.00;4.00;;;;;16.56;59.39;100730.34;5080280;28;45266;-62
2023/07/05 02:26:12;;;;;;;;;5.00;3.00;;;;;16.29;58.98;100688.06;5074334;28;45479;-62
2023/07/05 02:28:38;;;;;;;;;2.67;2.67;;;;;16.56;59.26;100739.34;5077308;27;45467;-62
2023/07/05 02:31:11;;;;;;;;;3.67;2.33;;;;;16.50;59.04;100739.34;5081917;28;45516;-63
2023/07/05 02:33:41;;;;;;;;;6.00;4.00;;;;;16.55;59.71;100750.13;5075306;27;45556;-62
2023/07/05 02:36:10;;;;;;;;;3.00;3.00;;;;;16.52;59.20;100748.31;5079136;27;45267;-61
2023/07/05 02:38:36;;;;;;;;;3.67;3.67;;;;;16.48;59.87;100740.22;5073914;28;46228;-61
2023/07/05 02:41:02;;;;;;;;;4.00;3.00;;;;;16.47;59.66;100746.53;5066839;28;45498;-62
2023/07/05 02:43:27;;;;;;;;;5.67;3.33;;;;;16.46;59.78;100744.72;5076527;27;45591;-62
2023/07/05 02:45:52;;;;;;;;;3.67;2.67;;;;;16.48;59.56;100749.22;5089653;27;44980;-61
2023/07/05 02:48:18;;;;;;;;;2.67;2.33;;;;;16.45;59.81;100756.38;5078511;28;57009;-63
2023/07/05 02:50:43;;;;;;;;;3.67;3.67;;;;;16.38;60.03;100756.41;5079428;27;64833;-61
2023/07/05 02:53:08;;;;;;;;;5.00;3.33;;;;;16.37;59.92;100759.97;5078475;28;45450;-61
2023/07/05 02:55:34;;;;;;;;;2.00;2.00;;;;;16.39;60.14;100776.16;5085718;27;45297;-61
2023/07/05 02:57:59;;;;;;;;;2.00;2.00;;;;;16.39;60.15;100782.44;5076129;28;53505;-62
2023/07/05 03:00:25;;;;;;;;;3.67;3.67;;;;;16.41;59.92;100771.66;5085153;28;45366;-62
2023/07/05 03:02:50;;;;;;;;;3.00;2.67;;;;;16.39;60.03;100771.66;5073809;28;45413;-62
2023/07/05 03:05:16;;;;;;;;;3.00;3.00;;;;;16.35;60.17;100763.56;5063764;28;45452;-62
2023/07/05 03:07:41;;;;;;;;;5.00;4.00;;;;;16.36;60.52;100770.75;5054250;28;56075;-62
2023/07/05 03:10:07;;;;;;;;;2.00;2.00;;;;;16.30;60.09;100771.66;5062308;28;45460;-62
2023/07/05 03:12:32;;;;;;;;;4.67;3.33;;;;;16.25;60.20;100773.44;5073608;27;45422;-62
2023/07/05 03:14:58;;;;;;;;;2.33;2.33;;;;;16.23;60.30;100779.69;5081168;28;45358;-61
2023/07/05 03:17:23;;;;;;;;;3.67;3.67;;;;;16.20;60.12;100777.88;5083273;28;45512;-62
2023/07/05 03:19:50;;;;;;;;;2.00;2.00;;;;;16.17;59.61;100785.97;5073771;28;45294;-61
2023/07/05 03:22:15;;;;;;;;;5.33;4.00;;;;;16.16;60.42;100789.56;5074829;28;45399;-61
2023/07/05 03:24:41;;;;;;;;;0.67;0.67;;;;;16.14;60.67;100788.66;5063524;28;45483;-62
2023/07/05 03:27:06;;;;;;;;;2.00;0.33;;;;;16.17;60.19;100785.97;5073537;27;46264;-62
2023/07/05 03:29:31;;;;;;;;;3.00;3.00;;;;;16.13;60.07;100779.66;5060764;28;45625;-63
2023/07/05 03:31:58;;;;;;;;;4.33;2.67;;;;;16.19;60.05;100813.84;5088709;28;45194;-62
2023/07/05 03:34:23;;;;;;;;;2.67;1.00;;;;;16.05;59.63;100785.91;5080788;28;45463;-62
2023/07/05 03:36:50;;;;;;;;;2.00;1.00;;;;;16.12;59.73;100806.59;5072641;27;45481;-63
2023/07/05 03:39:15;;;;;;;;;1.33;0.67;;;;;16.14;59.97;100818.31;5073691;28;45362;-62
2023/07/05 03:41:41;;;;;;;;;3.00;3.00;;;;;16.14;59.39;100823.69;5073237;28;45381;-60
2023/07/05 03:44:06;;;;;;;;;4.00;2.33;;;;;16.13;59.49;100830.88;5077147;28;45381;-61
2023/07/05 03:46:31;;;;;;;;;2.33;2.33;;;;;16.07;59.79;100819.16;5077913;27;45382;-61
2023/07/05 03:48:57;;;;;;;;;0.00;0.00;;;;;16.13;59.61;100833.56;5072691;27;45512;-60
2023/07/05 03:51:23;;;;;;;;;0.33;0.00;;;;;16.01;59.08;100820.03;5073365;28;45419;-61
2023/07/05 03:53:53;;;;;;;;;2.67;1.33;;;;;16.10;59.46;100844.34;5077502;28;45440;-62
2023/07/05 03:56:20;;;;;;;;;3.67;2.00;;;;;16.08;59.60;100837.13;5078234;28;45897;-61
2023/07/05 03:58:46;;;;;;;;;2.33;0.67;;;;;16.07;59.83;100838.03;5072197;28;45529;-62
2023/07/05 04:01:19;;;;;;;;;3.33;1.00;;;;;16.09;59.88;100844.34;5073933;28;45460;-61
2023/07/05 04:03:46;;;;;;;;;2.00;1.67;;;;;16.09;60.07;100844.34;5073553;28;46106;-62
2023/07/05 04:06:12;;;;;;;;;9.00;2.33;;;;;16.06;60.09;100841.63;5054159;28;48071;-62
2023/07/05 04:08:39;;;;;;;;;3.33;2.00;;;;;15.99;60.48;100841.59;5054929;28;45523;-61
2023/07/05 04:11:05;;;;;;;;;1.67;1.67;;;;;16.01;60.82;100858.66;5063940;27;45342;-61
2023/07/05 04:13:30;;;;;;;;;2.33;1.00;;;;;15.95;60.58;100855.91;5068633;28;45440;-61
2023/07/05 04:15:59;;;;;;;;;2.00;2.00;;;;;16.01;60.87;100860.47;5065096;28;45317;-63
2023/07/05 04:18:27;;;;;;;;;5.00;2.33;;;;;15.98;60.83;100871.22;5071647;28;45444;-60
2023/07/05 04:20:52;;;;;;;;;4.00;3.00;;;;;15.93;61.12;100871.19;5076878;27;45383;-61
2023/07/05 04:23:18;;;;;;;;;3.67;2.67;;;;;15.93;61.41;100870.28;5068945;27;45467;-62
2023/07/05 04:25:43;;;;;;;;;2.33;2.33;;;;;15.92;61.17;100872.09;5083298;27;45437;-62
2023/07/05 04:28:08;;;;;;;;;4.00;2.00;;;;;15.78;61.41;100855.81;5082302;27;45252;-62
2023/07/05 04:30:34;;;;;;;;;3.67;3.67;;;;;15.88;61.29;100886.41;5088891;28;45553;-62
2023/07/05 04:32:59;;;;;;;;;8.33;3.33;;;;;15.90;61.47;100892.72;5078648;28;45274;-61
2023/07/05 04:35:24;;;;;;;;;3.00;2.00;;;;;15.86;61.93;100888.22;5069885;27;45453;-61
2023/07/05 04:37:50;;;;;;;;;3.00;2.00;;;;;15.90;61.69;100895.41;5073882;28;45452;-62
2023/07/05 04:40:15;;;;;;;;;6.67;4.00;;;;;15.88;61.87;100888.22;5051700;28;45337;-62
2023/07/05 04:42:40;;;;;;;;;6.67;4.00;;;;;15.86;62.24;100893.59;5085524;27;45490;-61
2023/07/05 04:45:06;;;;;;;;;6.67;4.67;;;;;15.85;62.25;100889.09;5068852;28;46507;-64
2023/07/05 04:47:31;;;;;;;;;4.00;3.00;;;;;15.82;62.16;100892.69;5070870;28;45487;-62
2023/07/05 04:49:57;;;;;;;;;4.33;4.00;;;;;15.82;62.14;100891.75;5050285;28;51889;-62
2023/07/05 04:52:22;;;;;;;;;10.00;6.33;;;;;15.82;62.90;100892.69;5081597;27;45504;-61
2023/07/05 04:54:47;;;;;;;;;4.67;4.00;;;;;15.83;62.72;100898.97;5075738;27;45986;-61
2023/07/05 04:57:13;;;;;;;;;4.33;4.33;;;;;15.83;62.74;100907.03;5073196;27;45252;-62
2023/07/05 04:59:43;;;;;;;;;5.00;4.00;;;;;15.80;62.83;100901.63;5075871;28;57671;-61
2023/07/05 05:02:09;;;;;;;;;11.00;4.67;;;;;15.82;62.98;100900.75;5075378;28;45669;-61
2023/07/05 05:04:35;;;;;;;;;3.00;3.00;;;;;15.87;63.34;100916.03;5081579;27;45638;-61
2023/07/05 05:07:00;;;;;;;;;7.00;4.00;;;;;15.90;63.33;100911.56;5086450;28;46044;-61
2023/07/05 05:09:25;;;;;;;;;7.33;4.67;;;;;15.89;63.25;100908.88;5072974;28;45867;-62
2023/07/05 05:11:51;;;;;;;;;7.33;5.00;;;;;15.93;63.52;100906.22;5076954;28;45474;-63
2023/07/05 05:14:16;;;;;;;;;11.25;9.75;;;;;15.72;63.03;100858.44;5067021;28;46154;-63
2023/07/05 05:16:41;;;;;;;;;8.00;5.00;;;;;16.07;62.74;100910.78;5069089;27;45399;-62
2023/07/05 05:19:07;;;;;;;;;5.33;4.67;;;;;16.06;62.68;100903.63;5056215;28;45917;-62
2023/07/05 05:21:32;;;;;;;;;5.00;4.00;;;;;16.09;63.08;100904.53;5076237;28;45401;-64
2023/07/05 05:23:57;;;;;;;;;8.67;7.33;;;;;16.05;62.83;100907.19;5083431;28;49572;-60
2023/07/05 05:26:23;;;;;;;;;6.67;5.00;;;;;16.01;63.34;100904.47;5089667;28;45080;-61
2023/07/05 05:28:48;;;;;;;;;5.67;4.67;;;;;16.02;63.25;100911.69;5089156;28;51032;-62
2023/07/05 05:31:13;;;;;;;;;6.00;4.00;;;;;15.95;63.24;100899.03;5079361;28;45461;-62
2023/07/05 05:33:39;;;;;;;;;6.33;3.67;;;;;16.07;63.47;100913.47;5077544;28;49351;-62
2023/07/05 05:36:05;;;;;;;;;5.00;3.00;;;;;16.08;63.29;100901.81;5084965;28;45290;-63
2023/07/05 05:38:30;;;;;;;;;6.67;4.67;;;;;16.12;63.27;100909.94;5082396;27;45270;-61
2023/07/05 05:41:04;;;;;;;;;7.33;5.33;;;;;16.14;62.94;100913.53;5075965;27;45592;-61
2023/07/05 05:43:30;;;;;;;;;5.33;5.33;;;;;16.21;62.92;100917.19;5060282;28;47387;-62
2023/07/05 05:45:56;;;;;;;;;8.67;8.33;;;;;16.24;62.54;100922.59;5087325;28;45450;-61
2023/07/05 05:48:21;;;;;;;;;4.67;3.33;;;;;16.23;62.76;100907.28;5068491;28;45536;-63
2023/07/05 05:50:47;;;;;;;;;7.00;4.67;;;;;16.26;62.46;100910.00;5075508;28;46006;-62
2023/07/05 05:53:13;;;;;;;;;8.00;4.67;;;;;16.22;62.45;100897.44;5087945;27;46965;-62
2023/07/05 05:55:39;;;;;;;;;7.67;7.33;;;;;16.35;62.63;100918.16;5089470;28;45302;-62
2023/07/05 05:58:06;;;;;;;;;4.33;4.33;;;;;16.38;62.22;100922.66;5083232;27;45285;-63
2023/07/05 06:00:32;;;;;;;;;6.00;4.00;;;;;16.38;62.17;100926.28;5086397;28;45273;-62
2023/07/05 06:02:57;;;;;;;;;8.67;5.67;;;;;16.42;61.97;100926.28;5071153;28;46371;-64
2023/07/05 06:05:23;;;;;;;;;4.33;3.67;;;;;16.47;62.27;100929.91;5079863;28;45369;-63
2023/07/05 06:07:48;;;;;;;;;5.67;5.67;;;;;16.49;62.06;100933.50;5077133;28;45351;-61
2023/07/05 06:10:14;;;;;;;;;6.33;5.67;;;;;16.50;61.92;100935.28;5072677;28;46114;-64
2023/07/05 06:12:41;;;;;;;;;7.67;4.33;;;;;16.57;61.68;100945.25;5068138;28;46165;-62
2023/07/05 06:15:12;;;;;;;;;9.00;5.33;;;;;16.62;62.33;100945.28;5083720;27;45350;-63
2023/07/05 06:17:38;;;;;;;;;7.00;3.33;;;;;16.62;62.01;100940.75;5054097;28;45447;-62
2023/07/05 06:20:06;;;;;;;;;4.50;4.50;;;;;16.73;61.41;100948.91;5050798;28;45558;-63
2023/07/05 06:22:35;;;;;;;;;8.00;8.00;;;;;16.84;61.12;100951.66;5055989;28;45394;-61
2023/07/05 06:25:02;;;;;;;;;10.67;6.33;;;;;16.89;61.33;100958.88;5064822;28;45525;-61
2023/07/05 06:27:27;;;;;;;;;8.67;6.33;;;;;16.97;60.99;100948.13;5070404;27;45457;-61
2023/07/05 06:29:53;;;;;;;;;5.00;5.00;;;;;16.90;60.67;100928.31;5071624;28;45939;-62
2023/07/05 06:32:18;;;;;;;;;8.00;6.00;;;;;17.07;60.71;100960.75;5079716;27;45680;-62
2023/07/05 06:34:44;;;;;;;;;8.67;5.00;;;;;17.10;60.76;100954.47;5072301;28;45486;-62
2023/07/05 06:37:09;;;;;;;;;5.33;5.00;;;;;17.15;59.98;100947.28;5075281;27;45413;-67
2023/07/05 06:39:36;;;;;;;;;3.00;2.00;;;;;17.11;59.97;100935.56;5084767;27;45546;-62
2023/07/05 06:42:02;;;;;;;;;6.67;6.00;;;;;17.17;59.81;100944.59;5074575;28;46211;-62
2023/07/05 06:44:27;;;;;;;;;6.00;3.67;;;;;17.26;59.62;100950.03;5081594;27;45472;-62
2023/07/05 06:46:52;;;;;;;;;4.00;4.00;;;;;17.23;59.70;100945.50;5077094;28;45412;-62
2023/07/05 06:49:18;;;;;;;;;5.00;4.00;;;;;17.30;59.77;100958.09;5074606;27;45535;-63
2023/07/05 06:51:44;;;;;;;;;5.00;5.00;;;;;17.36;59.31;100959.03;5086482;28;45619;-63
2023/07/05 06:54:09;;;;;;;;;3.00;3.00;;;;;17.41;59.08;100968.94;5080701;28;45246;-63
2023/07/05 06:56:35;;;;;;;;;11.00;6.00;;;;;17.43;59.13;100964.44;5075040;28;45367;-62
2023/07/05 06:59:01;;;;;;;;;4.00;4.00;;;;;17.46;58.94;100964.44;5071164;28;45639;-62
2023/07/05 07:01:26;;;;;;;;;4.67;4.67;;;;;17.50;58.94;100977.06;5078451;28;45530;-61
2023/07/05 07:03:51;;;;;;;;;8.67;6.00;;;;;17.60;58.37;100977.06;5072833;28;45506;-63
2023/07/05 07:06:17;;;;;;;;;5.67;4.33;;;;;17.61;58.51;100973.47;5073850;27;45288;-62
2023/07/05 07:08:42;;;;;;;;;6.33;5.00;;;;;17.66;58.38;100977.06;5074284;28;45416;-62
2023/07/05 07:11:10;;;;;;;;;6.67;3.67;;;;;17.73;58.57;100991.50;5070636;27;45512;-62
2023/07/05 07:13:35;;;;;;;;;5.67;3.33;;;;;17.73;58.11;100984.28;5070551;27;45440;-62
2023/07/05 07:16:10;;;;;;;;;4.33;3.67;;;;;17.81;58.16;100990.59;5081537;27;45754;-63
2023/07/05 07:18:37;;;;;;;;;4.00;4.00;;;;;17.80;58.07;100991.50;5073180;28;45405;-62
2023/07/05 07:21:04;;;;;;;;;7.67;4.00;;;;;17.81;58.14;101004.09;5071659;28;47100;-62
2023/07/05 07:23:30;;;;;;;;;4.00;4.00;;;;;17.83;58.34;101007.69;5062777;28;45420;-64
2023/07/05 07:26:01;;;;;;;;;4.00;3.00;;;;;17.83;58.15;101007.69;5068967;27;45414;-62
2023/07/05 07:28:26;;;;;;;;;3.67;3.67;;;;;17.86;58.60;101009.53;5073759;27;45436;-63
2023/07/05 07:30:52;;;;;;;;;5.67;5.00;;;;;17.85;58.05;101005.94;5084677;27;45138;-62
2023/07/05 07:33:17;;;;;;;;;8.33;4.67;;;;;17.91;58.08;101006.84;5073360;28;45304;-62
2023/07/05 07:35:43;;;;;;;;;4.67;3.00;;;;;17.95;57.59;101011.34;5071683;28;45461;-63
2023/07/05 07:38:08;;;;;;;;;4.33;3.00;;;;;17.89;57.54;100995.16;5066902;28;45254;-61
2023/07/05 07:40:37;;;;;;;;;7.67;5.00;;;;;18.02;57.66;101011.34;5078577;28;50349;-63
2023/07/05 07:43:06;;;;;;;;;5.00;5.00;;;;;18.11;57.50;101026.66;5077867;28;45127;-62
2023/07/05 07:45:31;;;;;;;;;5.67;4.33;;;;;18.17;56.96;101032.09;5062593;28;45385;-61
2023/07/05 07:47:57;;;;;;;;;6.67;4.67;;;;;18.22;56.77;101027.56;5078436;27;45456;-62
2023/07/05 07:50:22;;;;;;;;;8.00;5.67;;;;;18.35;56.23;101033.00;5078168;27;46364;-61
2023/07/05 07:52:48;;;;;;;;;2.67;2.67;;;;;18.39;56.16;101041.06;5080762;27;45430;-63
2023/07/05 07:55:13;;;;;;;;;5.00;3.33;;;;;18.39;55.83;101035.66;5074217;28;45443;-63
2023/07/05 07:57:40;;;;;;;;;3.67;3.33;;;;;18.48;56.08;101040.19;5084179;27;45357;-62
2023/07/05 08:00:09;;;;;;;;;8.33;4.67;;;;;18.18;56.13;100982.53;5086004;27;45083;-62
2023/07/05 08:02:35;;;;;;;;;6.67;4.00;;;;;18.55;55.76;101041.06;5080094;28;45386;-63
2023/07/05 08:05:00;;;;;;;;;4.33;4.33;;;;;18.49;55.60;101022.13;5071683;27;45660;-63
2023/07/05 08:07:25;;;;;;;;;6.33;4.33;;;;;18.68;56.32;101045.56;5074420;28;45436;-62
2023/07/05 08:09:54;;;;;;;;;5.33;5.00;;;;;18.80;55.86;101039.19;5077692;27;46079;-63
2023/07/05 08:12:20;;;;;;;;;6.00;4.00;;;;;18.91;54.86;101026.56;5070416;27;45809;-63
2023/07/05 08:14:45;;;;;;;;;6.33;3.33;;;;;18.96;54.71;101027.44;5067233;28;45420;-63
2023/07/05 08:17:10;;;;;;;;;9.67;8.33;;;;;19.03;54.74;101022.91;5075004;27;45376;-62
2023/07/05 08:19:36;;;;;;;;;6.00;5.00;;;;;19.08;54.72;101023.78;5075382;27;45912;-62
2023/07/05 08:22:02;;;;;;;;;6.33;5.67;;;;;19.07;54.46;101022.00;5069083;28;45369;-62
2023/07/05 08:24:28;;;;;;;;;5.33;4.33;;;;;19.13;54.22;101031.91;5072170;27;45604;-63
2023/07/05 08:26:55;;;;;;;;;3.00;3.00;;;;;19.12;54.05;101027.38;5074162;27;45632;-61
2023/07/05 08:29:22;;;;;;;;;5.00;4.00;;;;;19.14;53.81;101025.59;5068049;28;46307;-62
2023/07/05 08:31:48;;;;;;;;;7.33;6.67;;;;;19.28;53.47;101030.94;5068749;27;45490;-62
2023/07/05 08:34:14;;;;;;;;;3.67;3.67;;;;;19.30;53.32;101035.44;5063747;27;46522;-62
2023/07/05 08:36:41;;;;;;;;;4.00;4.00;;;;;19.39;53.19;101042.59;5068661;27;45370;-62
2023/07/05 08:39:08;;;;;;;;;6.00;5.00;;;;;19.49;53.23;101046.16;5069486;27;46437;-62
2023/07/05 08:41:43;;;;;;;;;9.33;6.33;;;;;19.60;52.67;101046.09;5062365;27;45400;-61
2023/07/05 08:44:38;;;;;;;;;9.67;6.00;;;;;19.70;52.43;101047.84;5068079;28;45576;-62
2023/07/05 08:47:25;;;;;;;;;9.00;6.00;;;;;19.76;51.97;101060.50;5068182;28;45444;-63
2023/07/05 08:49:56;;;;;;;;;4.33;3.67;;;;;19.85;51.50;101058.63;5063582;27;45813;-63
2023/07/05 08:52:31;;;;;;;;;8.33;8.33;;;;;19.92;51.36;101064.91;5065306;27;45635;-62
2023/07/05 08:55:01;;;;;;;;;4.33;3.00;;;;;20.05;50.51;101058.47;5050696;28;45499;-62
2023/07/05 08:57:40;;;;;;;;;4.00;3.00;;;;;20.04;50.05;101072.03;5062602;28;45746;-66
2023/07/05 09:00:13;;;;;;;;;9.33;7.00;;;;;19.99;50.42;101071.19;5081239;28;47268;-64
2023/07/05 09:02:39;;;;;;;;;5.67;5.67;;;;;19.87;50.61;101069.47;5086201;28;45232;-65
2023/07/05 09:06:08;;;;;;;;;9.67;6.33;;;;;19.79;51.11;101074.94;5089624;28;45073;-66
2023/07/05 09:08:48;;;;;;;;;5.00;5.00;;;;;19.64;51.05;101056.03;4993021;28;45852;-64
2023/07/05 09:11:51;;;;;;;;;5.00;5.00;;;;;19.64;51.16;101062.34;5067065;27;48264;-65
2023/07/05 09:14:41;;;;;;;;;4.33;3.00;;;;;19.65;51.22;101072.28;5079703;27;45498;-65
2023/07/05 09:17:44;;;;;;;;;7.00;4.00;;;;;19.68;51.09;101077.69;5063895;27;45457;-65
2023/07/05 09:20:33;;;;;;;;;3.00;3.00;;;;;19.62;50.93;101069.59;5072845;28;45569;-66
2023/07/05 09:23:02;;;;;;;;;6.33;6.33;;;;;19.57;51.07;101063.28;5082313;28;45953;-66
2023/07/05 09:25:32;;;;;;;;;6.67;5.00;;;;;19.58;50.93;101070.50;5085647;28;45736;-65
2023/07/05 09:28:12;;;;;;;;;6.00;4.33;;;;;19.60;51.35;101070.47;5072400;28;45579;-65
2023/07/05 09:30:38;;;;;;;;;5.00;3.33;;;;;19.57;51.43;101055.16;5068157;27;45445;-63
2023/07/05 09:33:10;;;;;;;;;6.33;6.00;;;;;19.73;52.01;101060.47;5082745;28;45527;-66
2023/07/05 09:35:37;;;;;;;;;3.67;3.67;;;;;19.86;51.21;101057.72;5058914;27;45412;-67
2023/07/05 09:38:30;;;;;;;;;8.67;4.00;;;;;19.89;51.18;101052.25;5065347;28;45317;-65
2023/07/05 09:41:10;;;;;;;;;11.33;9.67;;;;;20.01;50.98;101064.84;5063942;27;45846;-65
2023/07/05 09:43:36;;;;;;;;;6.00;6.00;;;;;20.11;50.99;101060.22;5077614;27;46016;-66
2023/07/05 09:46:27;;;;;;;;;7.67;4.00;;;;;20.04;49.93;101051.22;5055182;27;45464;-66
2023/07/05 09:48:54;;;;;;;;;7.67;6.00;;;;;20.03;49.81;101064.84;5074657;27;45434;-68
2023/07/05 09:51:21;;;;;;;;;5.00;5.00;;;;;19.99;50.63;101068.47;5054945;28;45329;-66
2023/07/05 09:54:03;;;;;;;;;5.33;5.33;;;;;19.93;52.15;101079.34;5074266;27;46041;-65
2023/07/05 09:56:29;;;;;;;;;4.67;3.00;;;;;19.83;52.95;101078.50;5059695;27;45557;-65
2023/07/05 09:59:27;;;;;;;;;3.00;3.00;;;;;19.79;52.43;101076.75;5065119;28;45457;-64
2023/07/05 10:02:17;;;;;;;;;4.67;4.67;;;;;19.85;51.17;101072.19;5025434;28;45458;-65
2023/07/05 10:04:52;;;;;;;;;7.00;4.00;;;;;19.91;50.62;101075.75;5070818;27;46207;-66
2023/07/05 10:07:24;;;;;;;;;6.00;3.00;;;;;20.04;50.17;101075.66;5063144;28;45445;-66
2023/07/05 10:09:56;;;;;;;;;6.00;5.00;;;;;20.14;49.82;101079.19;5059446;28;45757;-64
2023/07/05 10:12:24;;;;;;;;;3.67;3.33;;;;;20.20;48.86;101061.97;5066856;28;45609;-64
2023/07/05 10:14:56;;;;;;;;;5.00;4.00;;;;;20.38;48.21;101072.66;5075233;27;46034;-65
2023/07/05 10:17:22;;;;;;;;;3.00;3.00;;;;;20.48;47.94;101084.34;5051405;27;45661;-67
2023/07/05 10:19:50;;;;;;;;;3.00;3.00;;;;;20.51;47.56;101087.03;5063252;28;45646;-68
2023/07/05 10:22:35;;;;;;;;;5.67;5.00;;;;;20.50;47.68;101090.66;5078945;27;45537;-66
2023/07/05 10:25:18;;;;;;;;;5.00;4.00;;;;;20.42;48.18;101085.28;5080501;27;45654;-64
2023/07/05 10:27:48;;;;;;;;;6.00;6.00;;;;;20.48;48.53;101081.63;5083571;27;45279;-68
2023/07/05 10:30:17;;;;;;;;;10.33;4.67;;;;;20.56;48.35;101079.75;5086658;27;45184;-63
2023/07/05 10:32:49;;;;;;;;;5.00;5.00;;;;;20.65;48.24;101080.59;5087008;27;45194;-63
2023/07/05 10:35:26;;;;;;;;;5.33;3.33;;;;;20.77;47.43;101084.09;5082075;27;45151;-64
2023/07/05 10:37:53;;;;;;;;;4.67;4.00;;;;;20.79;46.93;101076.84;5084521;27;44920;-64
2023/07/05 10:40:21;;;;;;;;;3.33;3.33;;;;;20.94;46.45;101078.47;5091847;27;45234;-64
2023/07/05 10:42:54;;;;;;;;;6.33;6.00;;;;;21.10;46.36;101081.94;5079057;27;45228;-70
2023/07/05 10:45:24;;;;;;;;;7.67;4.00;;;;;21.12;46.29;101071.94;5079171;27;45992;-66
2023/07/05 10:47:52;;;;;;;;;5.00;5.00;;;;;21.15;46.03;101073.69;5070767;27;45246;-65
2023/07/05 10:50:29;;;;;;;;;5.00;5.00;;;;;21.15;45.98;101082.78;5090000;27;45197;-65
2023/07/05 10:53:10;;;;;;;;;3.33;3.33;;;;;21.17;45.25;101091.78;5070451;27;45245;-63
2023/07/05 10:55:44;;;;;;;;;6.33;4.00;;;;;21.13;45.05;101078.25;5088842;27;45666;-66
2023/07/05 10:58:24;;;;;;;;;10.67;5.67;;;;;21.21;45.18;101083.59;5080676;27;45370;-66
2023/07/05 11:01:13;;;;;;;;;7.00;4.33;;;;;21.27;45.70;101084.44;5069667;28;45114;-64
2023/07/05 11:03:55;;;;;;;;;7.00;6.00;;;;;21.39;45.74;101079.75;5079325;27;45048;-64
2023/07/05 11:06:24;;;;;;;;;5.00;4.33;;;;;21.48;44.82;101082.38;5077641;27;45604;-65
2023/07/05 11:08:50;;;;;;;;;6.00;4.67;;;;;21.50;44.46;101081.44;5089978;27;45056;-65
2023/07/05 11:11:19;;;;;;;;;5.67;4.33;;;;;21.56;45.30;101068.69;5086075;28;45665;-64
2023/07/05 11:13:46;;;;;;;;;6.00;6.00;;;;;21.61;45.33;101072.22;5085866;28;45228;-63
2023/07/05 11:16:19;;;;;;;;;5.33;4.00;;;;;21.64;44.96;101075.81;5071859;28;47059;-65
2023/07/05 11:18:46;;;;;;;;;6.00;4.67;;;;;21.72;44.27;101076.59;5075452;27;45039;-64
2023/07/05 11:21:38;;;;;;;;;6.33;5.00;;;;;21.82;44.09;101066.47;5084856;27;45103;-66
2023/07/05 11:24:06;;;;;;;;;3.33;3.33;;;;;21.88;43.33;101062.78;5060853;28;45223;-64
2023/07/05 11:26:44;;;;;;;;;4.00;4.00;;;;;21.99;42.90;101062.59;5062879;28;46697;-66
2023/07/05 11:29:25;;;;;;;;;4.00;4.00;;;;;22.11;42.36;101062.41;5058358;28;45412;-64
2023/07/05 11:31:53;;;;;;;;;4.00;4.00;;;;;22.19;42.14;101062.28;5062400;28;45305;-67
2023/07/05 11:34:25;;;;;;;;;4.00;2.67;;;;;22.20;41.75;101062.25;5063481;28;45179;-65